createdAt,value
2018-10-03T00:02:07.151Z,100604.00
2018-10-03T00:04:35.218Z,100607.05
2018-10-03T00:07:03.305Z,100605.62
2018-10-03T00:09:31.392Z,100616.89
2018-10-03T00:11:59.499Z,100622.64
2018-10-03T00:14:27.571Z,100624.95
2018-10-03T00:16:55.730Z,100630.22
2018-10-03T00:19:23.780Z,100624.23
2018-10-03T00:21:51.964Z,100634.01
2018-10-03T00:24:20.039Z,100630.69
2018-10-03T00:26:48.123Z,100637.67
2018-10-03T00:29:16.255Z,100625.62
2018-10-03T00:31:44.334Z,100626.09
2018-10-03T00:34:12.610Z,100620.64
2018-10-03T00:36:40.696Z,100620.41
2018-10-03T00:39:09.991Z,100618.72
2018-10-03T00:41:38.644Z,100622.28
2018-10-03T00:44:06.830Z,100623.16
2018-10-03T00:46:34.928Z,100623.41
2018-10-03T00:49:03.315Z,100615.51
2018-10-03T00:51:31.474Z,100628.06
2018-10-03T00:53:59.675Z,100628.06
2018-10-03T00:56:38.687Z,100634.89
2018-10-03T00:59:06.928Z,100653.81
2018-10-03T01:01:35.036Z,100663.61
2018-10-03T01:04:03.197Z,100635.49
2018-10-03T01:06:31.299Z,100653.53
2018-10-03T01:08:59.406Z,100673.50
2018-10-03T01:11:27.499Z,100657.27
2018-10-03T01:13:55.598Z,100659.44
2018-10-03T01:16:23.716Z,100666.03
2018-10-03T01:18:51.851Z,100664.16
2018-10-03T01:21:19.943Z,100653.81
2018-10-03T01:23:48.029Z,100647.44
2018-10-03T01:26:16.111Z,100644.37
2018-10-03T01:28:44.210Z,100642.02
2018-10-03T01:31:12.274Z,100641.91
2018-10-03T01:33:40.671Z,100649.27
2018-10-03T01:36:08.775Z,100636.94
2018-10-03T01:38:36.891Z,100634.23
2018-10-03T01:41:04.995Z,100638.73
2018-10-03T01:43:33.095Z,100617.96
2018-10-03T01:46:01.204Z,100618.59
2018-10-03T01:48:29.295Z,100633.98
2018-10-03T01:50:57.378Z,100629.19
2018-10-03T01:53:25.470Z,100629.51
2018-10-03T01:55:53.547Z,100633.52
2018-10-03T01:58:21.643Z,100624.08
2018-10-03T02:00:49.810Z,100619.71
2018-10-03T02:03:17.861Z,100612.12
2018-10-03T02:05:46.055Z,100618.03
2018-10-03T02:08:14.137Z,100616.73
2018-10-03T02:10:42.399Z,100625.47
2018-10-03T02:13:10.517Z,100639.98
2018-10-03T02:15:38.627Z,100646.87
2018-10-03T02:18:06.729Z,100662.70
2018-10-03T02:20:34.812Z,100687.76
2018-10-03T02:23:02.894Z,100698.44
2018-10-03T02:25:31.012Z,100713.69
2018-10-03T02:27:59.115Z,100699.95
2018-10-03T02:30:27.224Z,100701.81
2018-10-03T02:32:55.308Z,100701.72
2018-10-03T02:35:23.416Z,100700.87
2018-10-03T02:37:51.535Z,100701.19
2018-10-03T02:40:19.651Z,100695.66
2018-10-03T02:42:47.767Z,100695.27
2018-10-03T02:45:19.171Z,100691.19
2018-10-03T02:47:47.651Z,100690.72
2018-10-03T02:50:15.751Z,100687.20
2018-10-03T02:52:43.900Z,100688.96
2018-10-03T02:55:12.021Z,100688.58
2018-10-03T02:57:40.107Z,100687.44
2018-10-03T03:00:08.264Z,100693.79
2018-10-03T03:02:36.362Z,100694.78
2018-10-03T03:05:04.575Z,100704.81
2018-10-03T03:07:32.695Z,100706.75
2018-10-03T03:10:00.809Z,100706.69
2018-10-03T03:12:28.895Z,100698.02
2018-10-03T03:14:56.955Z,100706.23
2018-10-03T03:17:25.051Z,100706.69
2018-10-03T03:19:53.175Z,100717.25
2018-10-03T03:22:21.280Z,100715.42
2018-10-03T03:24:49.425Z,100715.67
2018-10-03T03:27:17.493Z,100716.59
2018-10-03T03:29:45.564Z,100702.17
2018-10-03T03:32:13.691Z,100722.36
2018-10-03T03:34:41.834Z,100725.89
2018-10-03T03:37:09.895Z,100723.80
2018-10-03T03:39:38.020Z,100730.96
2018-10-03T03:42:06.107Z,100732.02
2018-10-03T03:44:34.191Z,100733.88
2018-10-03T03:47:02.264Z,100733.66
2018-10-03T03:49:30.347Z,100750.09
2018-10-03T03:51:58.439Z,100741.49
2018-10-03T03:54:26.553Z,100753.97
2018-10-03T03:56:54.627Z,100755.87
2018-10-03T03:59:22.735Z,100752.42
2018-10-03T04:01:50.851Z,100756.02
2018-10-03T04:04:18.945Z,100755.49
2018-10-03T04:06:47.030Z,100763.25
2018-10-03T04:09:15.132Z,100762.47
2018-10-03T04:11:43.283Z,100760.70
2018-10-03T04:14:11.384Z,100772.30
2018-10-03T04:16:39.461Z,100782.10
2018-10-03T04:19:07.550Z,100777.84
2018-10-03T04:21:40.316Z,100782.87
2018-10-03T04:24:09.608Z,100782.80
2018-10-03T04:26:38.020Z,100800.35
2018-10-03T04:29:06.372Z,100805.89
2018-10-03T04:31:35.297Z,100806.73
2018-10-03T04:34:04.175Z,100810.39
2018-10-03T04:36:32.757Z,100805.56
2018-10-03T04:39:00.943Z,100813.59
2018-10-03T04:41:29.033Z,100814.88
2018-10-03T04:43:57.109Z,100818.23
2018-10-03T04:46:25.216Z,100829.68
2018-10-03T04:48:53.331Z,100828.26
2018-10-03T04:51:21.418Z,100826.17
2018-10-03T04:53:49.524Z,100828.33
2018-10-03T04:56:17.635Z,100836.02
2018-10-03T04:58:45.718Z,100841.41
2018-10-03T05:01:13.783Z,100846.25
2018-10-03T05:03:42.024Z,100847.34
2018-10-03T05:06:10.234Z,100856.09
2018-10-03T05:08:38.332Z,100854.92
2018-10-03T05:11:06.451Z,100849.70
2018-10-03T05:13:34.567Z,100849.44
2018-10-03T05:16:02.654Z,100850.80
2018-10-03T05:18:30.763Z,100862.48
2018-10-03T05:20:58.904Z,100867.58
2018-10-03T05:23:26.983Z,100875.53
2018-10-03T05:25:55.192Z,100881.84
2018-10-03T05:28:23.314Z,100880.99
2018-10-03T05:30:51.455Z,100881.33
2018-10-03T05:33:19.715Z,100882.04
2018-10-03T05:35:47.807Z,100888.36
2018-10-03T05:38:15.886Z,100894.87
2018-10-03T05:40:43.995Z,100903.30
2018-10-03T05:43:12.108Z,100913.92
2018-10-03T05:45:40.268Z,100913.86
2018-10-03T05:48:08.336Z,100925.33
2018-10-03T05:50:36.420Z,100924.22
2018-10-03T05:53:04.562Z,100928.20
2018-10-03T05:55:32.659Z,100933.09
2018-10-03T05:58:00.707Z,100937.27
2018-10-03T06:00:28.800Z,100934.39
2018-10-03T06:02:56.914Z,100947.43
2018-10-03T06:05:24.986Z,100951.95
2018-10-03T06:07:53.083Z,100955.48
2018-10-03T06:10:21.176Z,100961.97
2018-10-03T06:12:49.308Z,100962.27
2018-10-03T06:15:17.595Z,100983.13
2018-10-03T06:17:45.703Z,100983.71
2018-10-03T06:20:13.798Z,100981.63
2018-10-03T06:22:41.960Z,100996.85
2018-10-03T06:25:10.024Z,100996.66
2018-10-03T06:27:38.232Z,101004.28
2018-10-03T06:30:06.263Z,101008.78
2018-10-03T06:33:37.583Z,101004.09
2018-10-03T06:36:05.643Z,101012.83
2018-10-03T06:38:33.724Z,101020.06
2018-10-03T06:41:01.843Z,101023.29
2018-10-03T06:43:29.928Z,101029.03
2018-10-03T06:45:58.022Z,101034.38
2018-10-03T06:48:26.131Z,101047.19
2018-10-03T06:50:54.204Z,101051.02
2018-10-03T06:53:22.312Z,101045.56
2018-10-03T06:55:50.474Z,101056.05
2018-10-03T06:58:18.619Z,101064.27
2018-10-03T07:00:46.731Z,101067.54
2018-10-03T07:03:14.806Z,101072.62
2018-10-03T07:05:42.908Z,101079.61
2018-10-03T07:08:11.008Z,101090.71
2018-10-03T07:10:39.153Z,101090.56
2018-10-03T07:13:07.281Z,101087.50
2018-10-03T07:15:35.431Z,101097.67
2018-10-03T07:18:03.552Z,101110.71
2018-10-03T07:20:31.692Z,101115.87
2018-10-03T07:23:00.417Z,101118.77
2018-10-03T07:25:28.683Z,101127.95
2018-10-03T07:27:56.768Z,101131.34
2018-10-03T07:30:24.934Z,101129.27
2018-10-03T07:32:53.035Z,101137.20
2018-10-03T07:35:21.111Z,101139.05
2018-10-03T07:37:49.203Z,101145.05
2018-10-03T07:40:17.288Z,101153.32
2018-10-03T07:42:45.359Z,101155.94
2018-10-03T07:45:13.463Z,101153.25
2018-10-03T07:47:41.537Z,101163.49
2018-10-03T07:50:09.901Z,101169.22
2018-10-03T07:52:37.996Z,101174.14
2018-10-03T07:55:06.157Z,101178.22
2018-10-03T07:57:34.336Z,101187.62
2018-10-03T08:00:02.431Z,101191.55
2018-10-03T08:02:30.523Z,101179.16
2018-10-03T08:04:58.623Z,101196.78
2018-10-03T08:07:26.703Z,101203.23
2018-10-03T08:09:54.840Z,101203.09
2018-10-03T08:12:22.916Z,101213.10
2018-10-03T08:14:51.000Z,101205.86
2018-10-03T08:17:19.098Z,101219.89
2018-10-03T08:19:47.161Z,101228.83
2018-10-03T08:22:15.251Z,101231.52
2018-10-03T08:24:43.418Z,101239.75
2018-10-03T08:27:11.487Z,101242.08
2018-10-03T08:29:39.587Z,101241.05
2018-10-03T08:32:07.726Z,101244.69
2018-10-03T08:34:35.847Z,101253.41
2018-10-03T08:37:03.976Z,101254.55
2018-10-03T08:39:32.058Z,101257.72
2018-10-03T08:42:00.172Z,101261.42
2018-10-03T08:44:28.295Z,101267.58
2018-10-03T08:46:56.386Z,101275.38
2018-10-03T08:49:24.514Z,101269.52
2018-10-03T08:51:52.665Z,101271.19
2018-10-03T08:54:20.756Z,101284.98
2018-10-03T08:56:48.876Z,101286.16
2018-10-03T08:59:17.015Z,101289.02
2018-10-03T09:01:45.158Z,101294.25
2018-10-03T09:04:13.298Z,101297.03
2018-10-03T09:06:41.407Z,101308.28
2018-10-03T09:09:10.339Z,101309.09
2018-10-03T09:11:38.436Z,101321.30
2018-10-03T09:14:06.463Z,101329.84
2018-10-03T09:16:34.628Z,101319.97
2018-10-03T09:19:02.728Z,101335.62
2018-10-03T09:21:31.405Z,101343.02
2018-10-03T09:23:59.458Z,101344.41
2018-10-03T09:26:27.575Z,101361.32
2018-10-03T09:28:55.679Z,101357.12
2018-10-03T09:31:23.775Z,101370.48
2018-10-03T09:33:52.212Z,101375.98
2018-10-03T09:36:20.333Z,101377.31
2018-10-03T09:38:48.431Z,101396.34
2018-10-03T09:41:16.543Z,101401.12
2018-10-03T09:43:44.671Z,101403.34
2018-10-03T09:46:12.800Z,101408.31
2018-10-03T09:48:40.908Z,101408.39
2018-10-03T09:51:09.054Z,101410.37
2018-10-03T09:53:37.175Z,101419.28
2018-10-03T09:56:05.264Z,101415.75
2018-10-03T09:58:33.367Z,101410.36
2018-10-03T10:01:06.857Z,101425.84
2018-10-03T10:03:34.970Z,101412.23
2018-10-03T10:06:03.097Z,101425.32
2018-10-03T10:08:31.180Z,101425.86
2018-10-03T10:10:59.447Z,101433.11
2018-10-03T10:13:27.524Z,101435.16
2018-10-03T10:15:55.601Z,101433.37
2018-10-03T10:18:23.712Z,101436.36
2018-10-03T10:20:51.878Z,101436.91
2018-10-03T10:23:19.944Z,101442.48
2018-10-03T10:25:48.043Z,101443.36
2018-10-03T10:28:16.255Z,101448.17
2018-10-03T10:30:44.359Z,101462.02
2018-10-03T10:33:12.593Z,101459.51
2018-10-03T10:35:40.608Z,101455.11
2018-10-03T10:38:08.684Z,101454.51
2018-10-03T10:40:36.937Z,101464.03
2018-10-03T10:43:04.955Z,101470.19
2018-10-03T10:45:33.056Z,101470.49
2018-10-03T10:48:01.131Z,101466.94
2018-10-03T10:50:29.291Z,101465.70
2018-10-03T10:52:57.361Z,101475.38
2018-10-03T10:55:25.443Z,101477.89
2018-10-03T10:57:53.583Z,101470.48
2018-10-03T11:00:21.659Z,101484.17
2018-10-03T11:02:49.730Z,101502.48
2018-10-03T11:05:17.854Z,101501.43
2018-10-03T11:07:45.960Z,101501.43
2018-10-03T11:10:14.103Z,101510.16
2018-10-03T11:12:42.243Z,101514.48
2018-10-03T11:15:10.359Z,101513.83
2018-10-03T11:17:38.464Z,101509.27
2018-10-03T11:20:06.551Z,101520.52
2018-10-03T11:22:34.643Z,101517.71
2018-10-03T11:25:02.848Z,101536.66
2018-10-03T11:27:30.875Z,101535.35
2018-10-03T11:29:59.008Z,101537.11
2018-10-03T11:32:27.284Z,101541.12
2018-10-03T11:34:55.400Z,101537.56
2018-10-03T11:37:23.575Z,101532.80
2018-10-03T11:39:51.687Z,101545.59
2018-10-03T11:42:19.789Z,101538.97
2018-10-03T11:44:47.928Z,101547.50
2018-10-03T11:47:16.040Z,101547.96
2018-10-03T11:49:44.141Z,101556.80
2018-10-03T11:52:12.281Z,101551.16
2018-10-03T11:54:40.398Z,101560.78
2018-10-03T11:57:08.647Z,101557.30
2018-10-03T11:59:36.649Z,101557.69
2018-10-03T12:02:04.679Z,101565.27
2018-10-03T12:04:32.813Z,101560.34
2018-10-03T12:07:00.971Z,101556.75
2018-10-03T12:09:29.073Z,101560.78
2018-10-03T12:11:57.183Z,101564.73
2018-10-03T12:14:25.296Z,101563.98
2018-10-03T12:16:53.483Z,101566.81
2018-10-03T12:19:21.543Z,101568.66
2018-10-03T12:21:49.639Z,101564.33
2018-10-03T12:24:17.737Z,101567.09
2018-10-03T12:26:45.851Z,101574.00
2018-10-03T12:29:14.042Z,101577.95
2018-10-03T12:31:42.175Z,101589.52
2018-10-03T12:34:10.237Z,101594.23
2018-10-03T12:36:38.371Z,101608.22
2018-10-03T12:39:08.722Z,101610.70
2018-10-03T12:41:37.178Z,101614.70
2018-10-03T12:44:05.682Z,101619.92
2018-10-03T12:46:33.803Z,101609.00
2018-10-03T12:49:01.896Z,101620.20
2018-10-03T12:51:30.012Z,101642.05
2018-10-03T12:53:58.077Z,101649.33
2018-10-03T12:56:26.207Z,101643.02
2018-10-03T12:58:54.289Z,101638.02
2018-10-03T13:01:22.486Z,101637.20
2018-10-03T13:03:50.479Z,101641.78
2018-10-03T13:06:18.575Z,101644.36
2018-10-03T13:08:46.670Z,101639.06
2018-10-03T13:11:14.771Z,101639.16
2018-10-03T13:13:45.029Z,101632.09
2018-10-03T13:16:13.364Z,101640.17
2018-10-03T13:18:41.505Z,101651.15
2018-10-03T13:21:09.722Z,101640.48
2018-10-03T13:23:37.824Z,101662.37
2018-10-03T13:26:06.006Z,101658.19
2018-10-03T13:28:34.097Z,101659.71
2018-10-03T13:31:02.237Z,101662.95
2018-10-03T13:33:30.318Z,101655.37
2018-10-03T13:35:58.395Z,101651.84
2018-10-03T13:38:26.511Z,101656.30
2018-10-03T13:40:54.726Z,101648.30
2018-10-03T13:43:22.727Z,101647.39
2018-10-03T13:45:50.843Z,101653.95
2018-10-03T13:48:18.957Z,101649.45
2018-10-03T13:50:47.074Z,101656.81
2018-10-03T13:53:15.185Z,101650.87
2018-10-03T13:55:43.295Z,101661.48
2018-10-03T13:58:11.394Z,101662.55
2018-10-03T14:00:39.491Z,101664.84
2018-10-03T14:03:07.604Z,101664.84
2018-10-03T14:05:35.664Z,101658.97
2018-10-03T14:08:03.739Z,101663.98
2018-10-03T14:10:31.895Z,101669.23
2018-10-03T14:12:59.980Z,101669.78
2018-10-03T14:15:28.120Z,101668.94
2018-10-03T14:17:56.446Z,101669.98
2018-10-03T14:20:24.643Z,101679.83
2018-10-03T14:22:52.727Z,101681.20
2018-10-03T14:25:20.856Z,101697.84
2018-10-03T14:27:48.938Z,101699.14
2018-10-03T14:30:17.027Z,101702.88
2018-10-03T14:32:45.137Z,101703.80
2018-10-03T14:35:13.237Z,101708.61
2018-10-03T14:37:41.344Z,101703.53
2018-10-03T14:40:09.441Z,101701.84
2018-10-03T14:42:37.596Z,101713.66
2018-10-03T14:45:05.691Z,101710.75
2018-10-03T14:47:33.779Z,101711.53
2018-10-03T14:50:01.871Z,101704.89
2018-10-03T14:52:30.026Z,101709.57
2018-10-03T14:54:58.151Z,101707.08
2018-10-03T14:57:26.231Z,101720.31
2018-10-03T14:59:54.347Z,101719.92
2018-10-03T15:02:22.424Z,101725.42
2018-10-03T15:04:50.542Z,101726.64
2018-10-03T15:07:18.627Z,101728.64
2018-10-03T15:09:46.781Z,101722.03
2018-10-03T15:12:14.934Z,101718.91
2018-10-03T15:14:43.095Z,101725.85
2018-10-03T15:17:11.171Z,101719.69
2018-10-03T15:19:39.283Z,101718.32
2018-10-03T15:22:07.759Z,101718.42
2018-10-03T15:24:39.271Z,101719.56
2018-10-03T15:27:08.018Z,101719.94
2018-10-03T15:29:36.444Z,101715.82
2018-10-03T15:32:04.788Z,101730.96
2018-10-03T15:34:33.063Z,101728.08
2018-10-03T15:37:01.158Z,101730.98
2018-10-03T15:39:29.306Z,101732.68
2018-10-03T15:41:57.563Z,101745.77
2018-10-03T15:44:25.851Z,101729.05
2018-10-03T15:46:54.129Z,101739.67
2018-10-03T15:49:22.335Z,101742.77
2018-10-03T15:51:50.534Z,101749.16
2018-10-03T15:54:18.815Z,101751.94
2018-10-03T15:56:46.999Z,101753.64
2018-10-03T15:59:15.189Z,101750.86
2018-10-03T16:01:43.432Z,101754.79
2018-10-03T16:04:11.827Z,101758.00
2018-10-03T16:06:39.974Z,101761.37
2018-10-03T16:09:08.958Z,101761.73
2018-10-03T16:11:37.074Z,101767.96
2018-10-03T16:14:05.772Z,101773.86
2018-10-03T16:16:34.039Z,101784.08
2018-10-03T16:19:02.254Z,101773.86
2018-10-03T16:21:30.508Z,101779.26
2018-10-03T16:23:59.103Z,101772.64
2018-10-03T16:26:27.290Z,101774.34
2018-10-03T16:28:55.283Z,101781.28
2018-10-03T16:31:23.370Z,101786.45
2018-10-03T16:33:51.490Z,101787.83
2018-10-03T16:36:19.681Z,101782.57
2018-10-03T16:38:48.244Z,101793.09
2018-10-03T16:41:16.422Z,101801.92
2018-10-03T16:43:44.604Z,101806.13
2018-10-03T16:46:12.801Z,101804.61
2018-10-03T16:48:40.994Z,101800.49
2018-10-03T16:51:09.106Z,101792.36
2018-10-03T16:53:37.307Z,101793.64
2018-10-03T16:56:05.778Z,101797.05
2018-10-03T16:58:33.948Z,101795.46
2018-10-03T17:01:02.258Z,101790.05
2018-10-03T17:03:30.311Z,101796.31
2018-10-03T17:05:58.550Z,101804.33
2018-10-03T17:08:26.716Z,101806.03
2018-10-03T17:10:55.035Z,101800.98
2018-10-03T17:13:23.179Z,101803.59
2018-10-03T17:15:51.312Z,101804.51
2018-10-03T17:18:19.477Z,101814.17
2018-10-03T17:20:47.591Z,101824.64
2018-10-03T17:23:15.663Z,101821.97
2018-10-03T17:25:45.042Z,101822.76
2018-10-03T17:28:13.272Z,101818.52
2018-10-03T17:30:41.347Z,101830.18
2018-10-03T17:33:09.523Z,101828.34
2018-10-03T17:35:37.661Z,101833.94
2018-10-03T17:38:06.016Z,101832.56
2018-10-03T17:40:34.914Z,101841.11
2018-10-03T17:43:03.025Z,101852.30
2018-10-03T17:45:31.562Z,101848.77
2018-10-03T17:47:59.677Z,101856.91
2018-10-03T17:50:27.737Z,101851.78
2018-10-03T17:52:55.833Z,101860.66
2018-10-03T17:55:24.016Z,101856.28
2018-10-03T17:57:52.075Z,101862.25
2018-10-03T18:00:20.148Z,101862.33
2018-10-03T18:02:48.219Z,101868.23
2018-10-03T18:05:16.332Z,101863.75
2018-10-03T18:07:44.450Z,101864.11
2018-10-03T18:10:12.642Z,101868.35
2018-10-03T18:12:40.732Z,101876.84
2018-10-03T18:15:08.822Z,101872.41
2018-10-03T18:17:36.907Z,101879.41
2018-10-03T18:20:05.015Z,101882.73
2018-10-03T18:22:33.089Z,101889.63
2018-10-03T18:25:01.191Z,101873.54
2018-10-03T18:27:29.275Z,101884.22
2018-10-03T18:29:57.408Z,101887.44
2018-10-03T18:32:25.511Z,101890.14
2018-10-03T18:34:53.552Z,101891.36
2018-10-03T18:37:21.631Z,101894.94
2018-10-03T18:39:49.684Z,101890.05
2018-10-03T18:42:17.795Z,101898.30
2018-10-03T18:44:45.867Z,101891.86
2018-10-03T18:47:13.941Z,101893.63
2018-10-03T18:49:42.051Z,101898.49
2018-10-03T18:52:10.229Z,101903.13
2018-10-03T18:54:38.299Z,101902.81
2018-10-03T18:57:06.409Z,101902.41
2018-10-03T18:59:34.486Z,101902.41
2018-10-03T19:02:02.581Z,101905.53
2018-10-03T19:04:30.665Z,101904.28
2018-10-03T19:06:58.803Z,101914.14
2018-10-03T19:09:26.913Z,101920.23
2018-10-03T19:11:54.985Z,101919.11
2018-10-03T19:14:23.109Z,101916.29
2018-10-03T19:16:51.207Z,101917.55
2018-10-03T19:19:19.328Z,101922.02
2018-10-03T19:21:47.403Z,101923.33
2018-10-03T19:24:15.470Z,101921.67
2018-10-03T19:26:43.659Z,101927.63
2018-10-03T19:29:12.202Z,101931.66
2018-10-03T19:31:40.349Z,101933.71
2018-10-03T19:34:08.407Z,101934.08
2018-10-03T19:36:36.525Z,101932.67
2018-10-03T19:39:06.019Z,101930.61
2018-10-03T19:41:34.299Z,101930.81
2018-10-03T19:44:02.399Z,101930.81
2018-10-03T19:46:30.494Z,101928.66
2018-10-03T19:48:58.597Z,101932.41
2018-10-03T19:51:26.687Z,101929.30
2018-10-03T19:53:54.751Z,101939.72
2018-10-03T19:56:22.843Z,101937.09
2018-10-03T19:58:50.920Z,101938.30
2018-10-03T20:01:19.013Z,101938.80
2018-10-03T20:03:47.128Z,101941.56
2018-10-03T20:06:15.195Z,101929.81
2018-10-03T20:08:43.303Z,101932.63
2018-10-03T20:11:11.372Z,101930.47
2018-10-03T20:18:36.439Z,101925.48
2018-10-03T20:21:04.645Z,101932.52
2018-10-03T20:23:32.603Z,101937.84
2018-10-03T20:26:00.714Z,101944.28
2018-10-03T20:28:28.805Z,101944.38
2018-10-03T20:30:56.878Z,101951.72
2018-10-03T20:33:25.213Z,101951.22
2018-10-03T20:35:53.306Z,101947.25
2018-10-03T20:38:21.372Z,101956.09
2018-10-03T20:40:49.469Z,101952.78
2018-10-03T20:43:17.547Z,101956.20
2018-10-03T20:45:45.686Z,101955.70
2018-10-03T20:48:13.781Z,101953.48
2018-10-03T20:50:41.843Z,101954.04
2018-10-03T20:53:09.915Z,101956.66
2018-10-03T20:55:38.040Z,101958.81
2018-10-03T20:58:06.303Z,101959.98
2018-10-03T21:00:34.397Z,101957.81
2018-10-03T21:03:02.519Z,101958.01
2018-10-03T21:05:30.642Z,101959.37
2018-10-03T21:07:58.741Z,101958.22
2018-10-03T21:10:26.889Z,101957.22
2018-10-03T21:12:54.999Z,101956.94
2018-10-03T21:15:23.067Z,101959.68
2018-10-03T21:17:51.200Z,101962.47
2018-10-03T21:20:19.293Z,101965.94
2018-10-03T21:22:47.372Z,101967.70
2018-10-03T21:25:15.456Z,101965.44
2018-10-03T21:27:43.603Z,101962.34
2018-10-03T21:30:11.711Z,101962.14
2018-10-03T21:32:39.789Z,101961.71
2018-10-03T21:35:07.947Z,101958.78
2018-10-03T21:37:36.036Z,101968.70
2018-10-03T21:40:04.407Z,101968.87
2018-10-03T21:42:32.575Z,101968.38
2018-10-03T21:45:00.681Z,101969.26
2018-10-03T21:47:28.795Z,101955.23
2018-10-03T21:49:56.953Z,101945.70
2018-10-03T21:52:25.070Z,101949.45
2018-10-03T21:54:53.131Z,101949.64
2018-10-03T21:57:21.232Z,101938.98
2018-10-03T21:59:49.299Z,101935.52
2018-10-03T22:02:17.353Z,101934.04
2018-10-03T22:04:45.469Z,101933.30
2018-10-03T22:07:13.528Z,101938.08
2018-10-03T22:09:41.680Z,101931.44
2018-10-03T22:12:09.772Z,101938.28
2018-10-03T22:14:38.010Z,101934.25
2018-10-03T22:17:10.287Z,101932.49
2018-10-03T22:19:38.407Z,101939.70
2018-10-03T22:22:06.488Z,101938.74
2018-10-03T22:24:34.591Z,101931.64
2018-10-03T22:27:02.658Z,101940.59
2018-10-03T22:29:30.796Z,101938.19
2018-10-03T22:31:58.877Z,101942.25
2018-10-03T22:34:26.997Z,101941.50
2018-10-03T22:36:55.079Z,101949.84
2018-10-03T22:39:23.180Z,101945.58
2018-10-03T22:41:51.262Z,101944.02
2018-10-03T22:44:19.345Z,101944.67
2018-10-03T22:46:47.421Z,101946.98
2018-10-03T22:49:15.607Z,101943.77
2018-10-03T22:51:43.757Z,101938.69
2018-10-03T22:54:11.860Z,101944.47
2018-10-03T22:56:39.941Z,101954.23
2018-10-03T22:59:08.016Z,101960.31
2018-10-03T23:01:36.130Z,101964.39
2018-10-03T23:04:04.214Z,101965.45
2018-10-03T23:06:32.311Z,101970.81
2018-10-03T23:09:00.406Z,101961.94
2018-10-03T23:11:28.467Z,101963.34
2018-10-03T23:13:56.555Z,101961.09
2018-10-03T23:16:24.668Z,101966.61
2018-10-03T23:18:52.776Z,101965.76
2018-10-03T23:21:20.854Z,101970.13
2018-10-03T23:23:48.956Z,101976.76
2018-10-03T23:26:17.042Z,101983.66
2018-10-03T23:28:45.123Z,101990.69
2018-10-03T23:31:13.186Z,101981.98
2018-10-03T23:33:41.336Z,101980.36
2018-10-03T23:36:09.413Z,101978.76
2018-10-03T23:38:37.520Z,101975.52
2018-10-03T23:41:05.596Z,101982.02
2018-10-03T23:43:33.673Z,101975.08
2018-10-03T23:46:01.783Z,101974.03
2018-10-03T23:48:29.866Z,101987.91
2018-10-03T23:50:57.953Z,101968.09
2018-10-03T23:53:25.995Z,101975.84
2018-10-03T23:55:54.119Z,101985.80
2018-10-03T23:58:22.222Z,101990.20
